Time;durP1;ratioP1;P1;durP2;ratioP2;P2;SDS_P1;SDS_P2;PMS_P1;PMS_P2;Temp;Humidity;BMP_temperature;BMP_pressure;BME280_temperature;BME280_humidity;BME280_pressure;Samples;Min_cycle;Max_cycle;Signal;HPM_P1;HPM_P2
2022/01/11 00:00:53;;;;;;;8.80;4.53;;;;;;;8.35;33.88;100080.31;4464076;32;33013;-66
2022/01/11 00:03:21;;;;;;;8.88;4.25;;;;;;;8.23;34.35;100077.53;4464316;32;33586;-65
2022/01/11 00:08:28;;;;;;;11.15;7.28;;;;;;;8.38;33.92;100084.66;4463556;32;34617;-65
2022/01/11 00:11:03;;;;;;;15.80;7.43;;;;;;;8.22;34.46;100075.78;4458904;32;32150;-66
2022/01/11 00:13:33;;;;;;;12.55;6.20;;;;;;;8.08;34.50;100080.13;4456583;32;34707;-67
2022/01/11 00:16:01;;;;;;;13.62;9.75;;;;;;;8.37;34.01;100081.06;4464414;32;34069;-66
2022/01/11 00:18:29;;;;;;;8.70;6.15;;;;;;;8.45;33.58;100091.31;4463503;32;35123;-67
2022/01/11 00:20:56;;;;;;;17.48;5.70;;;;;;;8.32;33.73;100095.66;4464418;32;33284;-66
2022/01/11 00:25:54;;;;;;;15.55;6.95;;;;;;;8.22;33.85;100087.34;4464046;32;34145;-65
2022/01/11 00:28:25;;;;;;;12.90;7.75;;;;;;;7.78;35.37;100089.94;4460407;32;33746;-68
2022/01/11 00:30:54;;;;;;;8.05;4.30;;;;;;;8.06;34.02;100100.72;4464045;32;33591;-65
2022/01/11 00:33:30;;;;;;;7.47;4.53;;;;;;;8.06;34.17;100098.06;4461477;32;32965;-67
2022/01/11 00:36:00;;;;;;;10.63;5.93;;;;;;;7.61;35.23;100102.44;4464622;32;34948;-69
2022/01/11 00:38:32;;;;;;;15.68;9.10;;;;;;;7.93;34.52;100107.72;4463163;32;33923;-65
2022/01/11 00:41:05;;;;;;;7.05;4.50;;;;;;;7.85;34.62;100117.94;4459867;32;35497;-68
2022/01/11 00:43:34;;;;;;;8.63;5.07;;;;;;;7.88;34.49;100118.63;4463115;32;33892;-67
2022/01/11 00:46:03;;;;;;;9.88;6.18;;;;;;;7.84;34.63;100121.56;4471190;32;33714;-66
2022/01/11 00:48:31;;;;;;;7.90;4.10;;;;;;;7.50;35.22;100127.94;4459805;32;34476;-65
2022/01/11 00:51:00;;;;;;;14.85;9.52;;;;;;;7.93;34.42;100135.22;4464584;32;33401;-67
2022/01/11 00:53:28;;;;;;;11.02;6.55;;;;;;;7.62;35.10;100136.09;4463712;32;34731;-67
2022/01/11 00:55:55;;;;;;;9.07;5.97;;;;;;;7.87;34.63;100132.06;4463105;32;34238;-69
2022/01/11 00:58:23;;;;;;;11.52;6.32;;;;;;;7.84;34.65;100132.22;4466018;32;34944;-67
2022/01/11 01:00:51;;;;;;;12.63;5.93;;;;;;;7.81;35.17;100137.72;4464399;32;33233;-68
2022/01/11 01:03:19;;;;;;;10.18;6.50;;;;;;;7.98;34.04;100140.28;4467030;32;34814;-68
2022/01/11 01:05:47;;;;;;;11.95;7.25;;;;;;;7.85;34.41;100144.59;4463003;32;33683;-70
2022/01/11 01:08:16;;;;;;;13.18;6.20;;;;;;;7.83;34.49;100143.81;4465310;32;34041;-69
2022/01/11 01:10:47;;;;;;;12.70;6.28;;;;;;;7.90;34.25;100145.22;4465990;32;34238;-68
2022/01/11 01:13:18;;;;;;;9.02;6.18;;;;;;;7.50;35.06;100160.75;4467025;32;33951;-66
2022/01/11 01:15:47;;;;;;;10.25;5.15;;;;;;;7.52;35.32;100155.37;4465258;32;34798;-66
2022/01/11 01:18:21;;;;;;;10.57;6.05;;;;;;;7.70;34.81;100165.84;4467608;32;33945;-66
2022/01/11 01:20:50;;;;;;;8.85;4.28;;;;;;;7.56;34.78;100163.09;4465773;32;34575;-68
2022/01/11 01:23:19;;;;;;;12.77;5.00;;;;;;;7.67;34.43;100166.03;4461837;32;34003;-65
2022/01/11 01:25:47;;;;;;;12.40;5.25;;;;;;;7.85;34.43;100163.25;4462203;32;33784;-69
2022/01/11 01:28:16;;;;;;;11.18;5.82;;;;;;;7.95;34.32;100167.09;4467083;32;34917;-69
2022/01/11 01:30:45;;;;;;;12.20;5.07;;;;;;;7.26;36.63;100170.97;4465352;32;33513;-71
2022/01/11 01:33:13;;;;;;;9.77;5.93;;;;;;;7.61;35.32;100174.34;4466556;32;33529;-70
2022/01/11 01:35:42;;;;;;;11.05;4.57;;;;;;;7.40;36.05;100172.87;4465248;32;34407;-70
2022/01/11 01:38:12;;;;;;;16.95;6.62;;;;;;;7.64;36.25;100171.53;4465604;32;32988;-67
2022/01/11 01:40:44;;;;;;;14.30;6.47;;;;;;;7.88;35.42;100168.41;4462573;32;33357;-68
2022/01/11 01:43:14;;;;;;;14.35;7.35;;;;;;;7.65;36.44;100178.56;4464797;32;33594;-69
2022/01/11 01:45:49;;;;;;;10.82;6.30;;;;;;;7.90;36.19;100172.72;4465261;32;34047;-69
2022/01/11 01:48:17;;;;;;;18.92;7.50;;;;;;;7.94;36.00;100168.91;4467608;32;34949;-68
2022/01/11 01:50:48;;;;;;;17.50;8.18;;;;;;;7.84;35.98;100181.06;4461686;32;33494;-70
2022/01/11 01:53:16;;;;;;;13.77;8.90;;;;;;;7.91;35.36;100177.09;4466286;32;32889;-70
2022/01/11 01:55:46;;;;;;;17.48;7.65;;;;;;;8.19;35.43;100180.00;4464720;32;32973;-68
2022/01/11 01:58:16;;;;;;;13.05;7.47;;;;;;;8.17;35.69;100174.72;4464507;32;33733;-68
2022/01/11 02:00:51;;;;;;;15.13;8.75;;;;;;;8.39;34.96;100171.72;4460912;32;33185;-71
2022/01/11 02:03:26;;;;;;;12.13;7.50;;;;;;;8.44;34.97;100172.28;4464008;32;35026;-70
2022/01/11 02:05:54;;;;;;;8.15;6.05;;;;;;;8.65;34.41;100166.63;4458243;32;34704;-69
2022/01/11 02:08:25;;;;;;;16.52;8.45;;;;;;;8.15;35.60;100180.16;4466839;32;34775;-71
2022/01/11 02:10:53;;;;;;;17.85;9.60;;;;;;;8.53;35.19;100179.75;4463985;32;34507;-67
2022/01/11 02:13:21;;;;;;;12.65;7.30;;;;;;;8.55;34.84;100175.19;4465208;32;33816;-70
2022/01/11 02:15:51;;;;;;;12.30;7.40;;;;;;;8.31;35.92;100173.91;4464344;32;33085;-69
2022/01/11 02:18:23;;;;;;;11.63;6.03;;;;;;;8.54;35.48;100175.25;4464324;32;33806;-70
2022/01/11 02:20:52;;;;;;;10.13;6.45;;;;;;;8.67;34.48;100180.72;4462563;32;34280;-71
2022/01/11 02:23:21;;;;;;;15.98;8.68;;;;;;;8.62;34.23;100173.84;4464013;32;34009;-71
2022/01/11 02:25:49;;;;;;;14.95;7.75;;;;;;;8.36;35.13;100177.19;4463143;32;33645;-70
2022/01/11 02:28:22;;;;;;;16.15;8.68;;;;;;;8.33;35.18;100172.03;4464719;32;33948;-69
2022/01/11 02:30:51;;;;;;;14.60;6.35;;;;;;;8.60;34.04;100174.88;4464799;32;34325;-68
2022/01/11 02:33:34;;;;;;;11.18;6.45;;;;;;;8.19;35.46;100180.00;4464277;32;32769;-69
2022/01/11 02:36:05;;;;;;;13.88;8.80;;;;;;;8.42;34.92;100176.88;4466098;32;35043;-71
2022/01/11 02:38:34;;;;;;;12.68;6.50;;;;;;;8.50;34.92;100185.25;4462483;32;33480;-72
2022/01/11 02:41:03;;;;;;;12.18;7.07;;;;;;;8.60;34.20;100189.13;4466885;32;33423;-71
2022/01/11 02:43:31;;;;;;;13.05;7.22;;;;;;;8.26;35.17;100187.53;4459989;32;33752;-70
2022/01/11 02:46:00;;;;;;;15.93;7.50;;;;;;;7.98;36.29;100192.72;4466692;32;33961;-69
2022/01/11 02:48:30;;;;;;;16.62;10.77;;;;;;;8.08;36.05;100191.25;4464894;32;31972;-68
2022/01/11 02:50:58;;;;;;;11.32;7.20;;;;;;;8.26;35.58;100194.69;4465419;32;33810;-70
2022/01/11 02:53:26;;;;;;;10.23;6.78;;;;;;;8.46;34.91;100181.06;4465634;32;34999;-69
2022/01/11 02:55:55;;;;;;;18.23;8.18;;;;;;;8.65;33.59;100187.97;4466331;32;34160;-69
2022/01/11 02:58:23;;;;;;;11.98;6.50;;;;;;;8.42;34.11;100184.88;4466076;32;34998;-70
2022/01/11 03:00:51;;;;;;;17.20;7.00;;;;;;;8.12;35.48;100191.00;4466362;32;34244;-70
2022/01/11 03:03:22;;;;;;;15.43;7.93;;;;;;;8.47;33.97;100193.44;4465639;32;33947;-70
2022/01/11 03:05:57;;;;;;;11.43;7.12;;;;;;;7.92;35.95;100191.28;4464914;32;33660;-71
2022/01/11 03:08:27;;;;;;;13.00;8.18;;;;;;;8.13;35.41;100198.06;4464498;32;33508;-71
2022/01/11 03:10:56;;;;;;;17.30;9.82;;;;;;;8.34;34.40;100205.75;4464536;32;32583;-71
2022/01/11 03:13:24;;;;;;;16.50;8.73;;;;;;;7.99;35.83;100208.62;4466204;32;33756;-70
2022/01/11 03:15:53;;;;;;;16.58;9.63;;;;;;;8.34;34.60;100206.59;4464655;32;32922;-68
2022/01/11 03:18:21;;;;;;;15.65;9.63;;;;;;;8.53;34.04;100219.75;4464225;32;33687;-67
2022/01/11 03:20:51;;;;;;;16.23;10.27;;;;;;;7.92;34.31;100220.59;4466547;32;32128;-69
2022/01/11 03:23:20;;;;;;;14.35;8.80;;;;;;;8.30;34.11;100225.53;4464257;32;32078;-68
2022/01/11 03:25:51;;;;;;;12.02;8.23;;;;;;;8.33;33.94;100220.91;4465463;32;34998;-68
2022/01/11 03:28:20;;;;;;;12.85;7.87;;;;;;;7.54;36.11;100225.38;4464688;32;34031;-68
2022/01/11 03:30:49;;;;;;;17.83;11.27;;;;;;;7.30;36.66;100230.25;4464181;32;34508;-69
2022/01/11 03:33:17;;;;;;;12.90;8.60;;;;;;;8.01;34.79;100227.22;4465086;32;32760;-68
2022/01/11 03:35:45;;;;;;;19.83;12.13;;;;;;;8.02;34.73;100235.12;4465515;32;33006;-70
2022/01/11 03:38:15;;;;;;;18.20;8.07;;;;;;;7.67;35.81;100237.97;4464663;32;35034;-67
2022/01/11 03:40:43;;;;;;;13.35;8.35;;;;;;;7.36;36.44;100232.56;4466522;32;32756;-67
2022/01/11 03:43:11;;;;;;;17.48;9.43;;;;;;;7.78;35.50;100229.38;4465535;32;33374;-68
2022/01/11 03:45:39;;;;;;;14.82;6.75;;;;;;;7.76;35.65;100228.56;4465374;32;34177;-69
2022/01/11 03:48:08;;;;;;;15.52;8.40;;;;;;;7.68;35.54;100234.34;4462501;32;33866;-68
2022/01/11 03:50:36;;;;;;;14.73;8.55;;;;;;;7.87;35.10;100230.66;4464939;32;33515;-67
2022/01/11 03:53:11;;;;;;;15.00;8.13;;;;;;;8.03;34.62;100233.34;4464353;32;34934;-68
2022/01/11 03:58:15;;;;;;;14.70;9.25;;;;;;;8.15;34.39;100240.59;4465131;32;33696;-67
2022/01/11 04:00:44;;;;;;;16.17;8.13;;;;;;;8.15;34.55;100248.59;4465343;32;33530;-67
2022/01/11 04:03:12;;;;;;;17.27;9.77;;;;;;;8.10;34.52;100248.03;4462108;32;34287;-67
2022/01/11 04:05:42;;;;;;;12.05;6.75;;;;;;;7.77;35.15;100258.75;4463649;32;34985;-68
2022/01/11 04:08:10;;;;;;;14.50;7.40;;;;;;;7.93;34.56;100251.66;4459834;32;34757;-68
2022/01/11 04:10:38;;;;;;;18.52;13.02;;;;;;;8.11;34.09;100255.91;4463516;32;34270;-66
2022/01/11 04:13:06;;;;;;;11.18;7.28;;;;;;;8.17;33.82;100257.37;4464581;32;33754;-68
2022/01/11 04:15:33;;;;;;;13.82;8.15;;;;;;;8.17;34.10;100258.25;4465843;32;32857;-65
2022/01/11 04:18:02;;;;;;;14.50;7.95;;;;;;;8.05;34.27;100264.25;4464240;32;33873;-66
2022/01/11 04:20:30;;;;;;;15.15;7.93;;;;;;;7.65;34.59;100263.81;4465247;32;34484;-67
2022/01/11 04:22:58;;;;;;;14.05;9.10;;;;;;;7.59;34.94;100266.81;4466717;32;34096;-66
2022/01/11 04:25:26;;;;;;;9.52;7.32;;;;;;;7.71;34.70;100265.28;4464700;32;33937;-67
2022/01/11 04:27:54;;;;;;;12.27;8.55;;;;;;;7.90;34.27;100262.47;4463806;32;33779;-67
2022/01/11 04:30:22;;;;;;;12.65;7.50;;;;;;;7.60;35.02;100265.84;4466420;32;33533;-68
2022/01/11 04:32:49;;;;;;;18.30;7.95;;;;;;;7.73;34.66;100274.03;4460077;32;33853;-66
2022/01/11 04:35:18;;;;;;;17.33;10.27;;;;;;;7.91;34.23;100257.03;4466774;32;33747;-66
2022/01/11 04:37:46;;;;;;;16.55;9.82;;;;;;;8.03;33.98;100270.66;4464891;32;34980;-66
2022/01/11 04:40:14;;;;;;;18.00;10.00;;;;;;;7.92;34.18;100279.22;4466552;32;33597;-66
2022/01/11 04:42:42;;;;;;;15.57;8.07;;;;;;;8.00;33.96;100289.47;4460653;32;33578;-68
2022/01/11 04:45:11;;;;;;;13.00;8.80;;;;;;;7.93;34.36;100296.97;4463879;32;33954;-68
2022/01/11 04:47:40;;;;;;;18.23;12.30;;;;;;;7.83;35.14;100301.03;4463456;32;32424;-69
2022/01/11 04:50:09;;;;;;;20.58;12.88;;;;;;;7.79;35.69;100299.50;4464367;32;33640;-69
2022/01/11 04:52:37;;;;;;;15.95;8.73;;;;;;;8.17;34.51;100305.37;4464167;32;34452;-70
2022/01/11 04:55:07;;;;;;;18.08;12.00;;;;;;;8.54;33.55;100309.53;4462576;32;32540;-69
2022/01/11 04:57:44;;;;;;;16.15;10.45;;;;;;;8.56;33.85;100310.28;4465689;32;33924;-70
2022/01/11 05:00:14;;;;;;;16.23;8.68;;;;;;;8.86;32.81;100304.16;4463253;32;33640;-68
2022/01/11 05:02:42;;;;;;;20.15;13.15;;;;;;;8.68;32.86;100311.41;4466168;32;33239;-68
2022/01/11 05:05:10;;;;;;;23.48;15.88;;;;;;;8.52;33.53;100319.44;4466096;31;32908;-69
2022/01/11 05:07:45;;;;;;;21.55;11.90;;;;;;;8.97;32.82;100317.72;4464014;32;33597;-69
2022/01/11 05:10:13;;;;;;;15.50;8.05;;;;;;;9.13;32.07;100314.13;4464503;32;34378;-69
2022/01/11 05:12:41;;;;;;;14.45;9.18;;;;;;;8.85;33.12;100318.44;4466129;32;33701;-71
2022/01/11 05:15:10;;;;;;;20.90;14.23;;;;;;;9.00;32.85;100330.88;4465244;32;34035;-71
2022/01/11 05:17:38;;;;;;;20.50;14.23;;;;;;;9.04;32.32;100331.56;4466308;32;32926;-68
2022/01/11 05:20:07;;;;;;;18.55;12.10;;;;;;;9.10;32.84;100334.72;4463857;32;33846;-67
2022/01/11 05:22:36;;;;;;;21.67;15.27;;;;;;;8.90;32.63;100340.38;4465921;32;32533;-68
2022/01/11 05:25:05;;;;;;;20.20;12.23;;;;;;;8.88;33.16;100336.09;4465005;31;35346;-70
2022/01/11 05:27:32;;;;;;;20.45;15.25;;;;;;;9.04;32.48;100345.75;4459373;32;33668;-68
2022/01/11 05:30:00;;;;;;;22.25;14.32;;;;;;;9.43;31.51;100336.31;4464901;32;33257;-66
2022/01/11 05:32:29;;;;;;;18.98;13.75;;;;;;;9.21;31.62;100343.91;4466273;32;33741;-67
2022/01/11 05:34:56;;;;;;;21.77;14.52;;;;;;;8.60;33.02;100354.56;4465055;32;34050;-68
2022/01/11 05:37:24;;;;;;;12.32;7.93;;;;;;;8.85;32.28;100351.31;4463962;32;33881;-68
2022/01/11 05:39:53;;;;;;;18.77;11.82;;;;;;;8.78;32.39;100357.09;4467448;32;32324;-68
2022/01/11 05:42:22;;;;;;;19.73;14.48;;;;;;;8.72;32.62;100366.31;4463978;32;33867;-68
2022/01/11 05:44:50;;;;;;;19.35;13.57;;;;;;;8.86;32.41;100363.72;4465082;32;34064;-67
2022/01/11 05:47:18;;;;;;;21.27;14.63;;;;;;;8.66;32.71;100377.34;4465673;32;34571;-68
2022/01/11 05:49:46;;;;;;;16.20;11.18;;;;;;;8.94;32.37;100371.28;4466159;32;33547;-67
2022/01/11 05:52:14;;;;;;;13.35;9.27;;;;;;;8.96;32.16;100373.88;4467176;32;35152;-68
2022/01/11 05:54:41;;;;;;;19.65;9.02;;;;;;;8.45;32.69;100381.25;4467430;32;33854;-67
2022/01/11 05:57:09;;;;;;;22.13;14.52;;;;;;;8.24;33.37;100380.56;4466654;32;33814;-67
2022/01/11 05:59:37;;;;;;;15.05;9.10;;;;;;;8.13;33.43;100390.03;4467633;32;33901;-66
2022/01/11 06:02:07;;;;;;;15.70;8.80;;;;;;;7.77;34.34;100384.88;4466580;32;34929;-69
2022/01/11 06:04:35;;;;;;;15.52;10.45;;;;;;;7.93;33.47;100390.25;4468585;32;33832;-68
2022/01/11 06:07:02;;;;;;;15.82;11.12;;;;;;;8.55;32.45;100399.31;4478440;32;34820;-68
2022/01/11 06:09:30;;;;;;;13.73;9.57;;;;;;;8.53;32.48;100393.19;4462751;32;34451;-68
2022/01/11 06:11:58;;;;;;;18.75;12.10;;;;;;;8.54;32.05;100404.72;4467749;32;34672;-69
2022/01/11 06:14:26;;;;;;;16.65;10.23;;;;;;;7.64;33.31;100407.75;4467541;32;33089;-68
2022/01/11 06:16:54;;;;;;;11.57;7.65;;;;;;;7.70;34.15;100412.75;4465905;32;33794;-68
2022/01/11 06:19:22;;;;;;;14.13;8.00;;;;;;;7.45;34.54;100410.53;4466440;32;32305;-69
2022/01/11 06:21:50;;;;;;;14.93;9.25;;;;;;;7.42;33.99;100416.87;4464894;32;33713;-71
2022/01/11 06:24:17;;;;;;;19.50;13.00;;;;;;;7.52;34.27;100419.06;4467227;32;35181;-68
2022/01/11 06:26:46;;;;;;;17.87;11.68;;;;;;;8.23;33.19;100421.53;4468603;32;35017;-68
2022/01/11 06:29:13;;;;;;;10.98;6.70;;;;;;;7.94;33.63;100429.28;4467170;32;33276;-70
2022/01/11 06:31:41;;;;;;;14.55;8.95;;;;;;;8.14;34.25;100439.72;4468487;32;33932;-67
2022/01/11 06:34:10;;;;;;;20.25;11.20;;;;;;;7.41;35.33;100443.56;4466348;32;33988;-69
2022/01/11 06:36:37;;;;;;;17.27;12.48;;;;;;;7.77;33.95;100448.84;4467593;32;32718;-68
2022/01/11 06:39:05;;;;;;;11.00;6.03;;;;;;;8.30;32.82;100460.25;4468091;32;34542;-69
2022/01/11 06:41:35;;;;;;;16.92;12.10;;;;;;;8.39;32.58;100459.78;4466835;32;34734;-69
2022/01/11 06:44:05;;;;;;;17.50;11.38;;;;;;;8.40;32.25;100465.03;4466770;32;33799;-66
2022/01/11 06:46:34;;;;;;;20.40;10.57;;;;;;;8.66;31.87;100469.88;4465414;32;33123;-69
2022/01/11 06:49:02;;;;;;;13.88;7.57;;;;;;;8.78;31.70;100469.22;4468777;32;33112;-69
2022/01/11 06:51:29;;;;;;;19.92;12.52;;;;;;;8.26;32.94;100475.56;4465038;32;33775;-69
2022/01/11 06:53:57;;;;;;;18.55;9.82;;;;;;;9.00;31.18;100477.75;4467232;32;33159;-69
2022/01/11 06:56:24;;;;;;;15.60;10.52;;;;;;;9.20;30.34;100478.41;4465632;32;32452;-68
2022/01/11 06:58:53;;;;;;;14.85;9.05;;;;;;;8.80;31.86;100481.53;4467561;32;33703;-69
2022/01/11 07:01:21;;;;;;;19.45;13.15;;;;;;;9.73;29.70;100485.13;4467138;32;33881;-68
2022/01/11 07:03:49;;;;;;;19.50;13.30;;;;;;;10.28;28.78;100484.47;4465474;32;32418;-69
2022/01/11 07:06:18;;;;;;;18.67;13.38;;;;;;;10.70;28.76;100480.06;4462819;32;34791;-68
2022/01/11 07:08:46;;;;;;;19.27;13.52;;;;;;;10.57;29.20;100485.31;4467240;32;33487;-72
2022/01/11 07:11:18;;;;;;;21.77;14.38;;;;;;;10.81;28.66;100492.75;4466572;32;34022;-70
2022/01/11 07:13:46;;;;;;;19.95;14.20;;;;;;;11.62;26.70;100495.47;4466673;32;35049;-70
2022/01/11 07:16:14;;;;;;;17.70;12.57;;;;;;;12.21;27.05;100493.25;4467725;32;33537;-71
2022/01/11 07:18:44;;;;;;;17.85;12.93;;;;;;;11.93;26.37;100498.78;4468744;32;33589;-69
2022/01/11 07:21:12;;;;;;;20.02;12.75;;;;;;;11.65;27.76;100503.28;4467165;32;33002;-71
2022/01/11 07:23:40;;;;;;;18.33;12.13;;;;;;;11.84;26.58;100501.13;4467208;32;34238;-70
2022/01/11 07:26:08;;;;;;;13.88;9.73;;;;;;;11.91;27.06;100501.59;4467793;32;32798;-70
2022/01/11 07:28:37;;;;;;;13.75;9.52;;;;;;;12.00;25.23;100508.13;4467377;32;34477;-69
2022/01/11 07:31:05;;;;;;;13.48;9.23;;;;;;;12.09;25.15;100504.81;4467124;32;34081;-69
2022/01/11 07:33:33;;;;;;;13.38;8.57;;;;;;;11.94;25.20;100506.75;4460935;32;33982;-69
2022/01/11 07:36:01;;;;;;;13.73;9.52;;;;;;;12.02;24.87;100508.91;4466664;32;34719;-68
2022/01/11 07:38:29;;;;;;;16.33;9.77;;;;;;;12.34;24.04;100504.81;4461692;32;31952;-70
2022/01/11 07:40:57;;;;;;;14.90;8.93;;;;;;;12.22;24.55;100513.72;4466319;32;35061;-69
2022/01/11 07:43:25;;;;;;;13.90;9.15;;;;;;;12.13;25.42;100514.38;4463411;32;33592;-72
2022/01/11 07:45:53;;;;;;;15.98;9.30;;;;;;;12.29;25.22;100522.22;4464860;32;33684;-69
2022/01/11 07:48:21;;;;;;;13.62;9.07;;;;;;;12.74;24.64;100528.84;4467426;32;33333;-69
2022/01/11 07:50:49;;;;;;;15.27;9.15;;;;;;;13.30;23.64;100527.59;4465758;32;33641;-70
2022/01/11 07:53:17;;;;;;;15.02;9.65;;;;;;;14.11;22.16;100526.84;4466577;32;34957;-71
2022/01/11 07:55:45;;;;;;;16.50;9.48;;;;;;;14.27;22.18;100521.97;4466095;32;34837;-70
2022/01/11 07:58:13;;;;;;;17.37;9.45;;;;;;;13.05;23.23;100524.81;4467010;32;33664;-70
2022/01/11 08:00:42;;;;;;;14.85;9.60;;;;;;;13.28;23.48;100527.69;4464196;32;33826;-69
2022/01/11 08:03:11;;;;;;;13.68;8.68;;;;;;;13.42;22.79;100524.00;4462887;32;33169;-71
2022/01/11 08:05:40;;;;;;;15.27;9.70;;;;;;;10.78;25.20;100520.56;4465014;32;33637;-71
2022/01/11 08:08:07;;;;;;;11.25;8.23;;;;;;;10.84;26.50;100528.22;4459302;32;33094;-70
2022/01/11 08:10:35;;;;;;;12.80;9.25;;;;;;;9.69;28.77;100531.66;4465557;32;34003;-70
2022/01/11 08:13:06;;;;;;;13.35;9.15;;;;;;;9.61;26.99;100533.94;4465915;32;34979;-70
2022/01/11 08:15:34;;;;;;;11.40;8.05;;;;;;;10.09;27.59;100537.34;4465891;32;32711;-71
2022/01/11 08:18:05;;;;;;;11.00;6.50;;;;;;;9.19;28.54;100548.81;4465335;32;34628;-70
2022/01/11 08:20:33;;;;;;;14.32;8.43;;;;;;;9.31;27.63;100546.31;4465254;32;33237;-68
2022/01/11 08:23:02;;;;;;;6.85;4.00;;;;;;;9.77;27.69;100550.81;4464614;32;35009;-67
2022/01/11 08:25:30;;;;;;;11.77;7.47;;;;;;;9.90;27.83;100549.13;4466392;32;33642;-68
2022/01/11 08:27:59;;;;;;;13.57;9.02;;;;;;;11.61;25.96;100537.50;4467025;32;34441;-68
2022/01/11 08:30:27;;;;;;;14.75;8.93;;;;;;;12.40;24.90;100540.28;4464943;32;33636;-67
2022/01/11 08:32:56;;;;;;;13.68;8.73;;;;;;;12.79;24.52;100541.97;4464339;32;35528;-67
2022/01/11 08:35:25;;;;;;;11.75;8.35;;;;;;;13.07;24.53;100546.22;4465097;32;32769;-66
2022/01/11 08:37:53;;;;;;;12.93;8.68;;;;;;;12.98;22.85;100544.19;4467587;32;34615;-67
2022/01/11 08:40:23;;;;;;;14.48;9.18;;;;;;;13.16;23.09;100548.25;4465965;32;34949;-67
2022/01/11 08:42:52;;;;;;;12.10;7.68;;;;;;;12.06;23.93;100551.50;4466526;32;33931;-67
2022/01/11 08:45:20;;;;;;;13.90;8.43;;;;;;;11.35;24.91;100552.63;4461092;32;33945;-66
2022/01/11 08:47:49;;;;;;;13.55;8.82;;;;;;;10.16;26.41;100566.28;4466375;32;33509;-65
2022/01/11 08:50:18;;;;;;;12.18;8.15;;;;;;;10.87;26.04;100565.53;4465748;32;32705;-65
2022/01/11 08:52:46;;;;;;;13.75;9.35;;;;;;;11.15;25.60;100571.81;4466798;32;35147;-67
2022/01/11 08:55:14;;;;;;;11.27;8.35;;;;;;;11.63;25.54;100567.78;4466130;32;33848;-66
2022/01/11 08:57:44;;;;;;;15.52;9.40;;;;;;;12.03;24.05;100564.25;4464868;32;33434;-66
2022/01/11 09:00:17;;;;;;;8.35;5.15;;;;;;;10.72;24.34;100551.31;4465656;32;33946;-67
2022/01/11 09:02:48;;;;;;;10.63;5.40;;;;;;;9.93;27.01;100570.34;4467129;32;34163;-67
2022/01/11 09:05:17;;;;;;;9.60;4.65;;;;;;;7.44;29.27;100571.25;4467871;32;32710;-66
2022/01/11 09:07:44;;;;;;;7.53;4.20;;;;;;;7.58;31.03;100581.25;4468617;32;33317;-66
2022/01/11 09:10:13;;;;;;;8.52;5.45;;;;;;;7.37;30.21;100583.16;4467942;32;34903;-68
2022/01/11 09:12:41;;;;;;;7.43;2.97;;;;;;;6.54;31.82;100582.53;4468543;32;32808;-68
2022/01/11 09:15:10;;;;;;;6.70;4.50;;;;;;;7.03;30.21;100578.56;4467483;32;33839;-65
2022/01/11 09:17:38;;;;;;;6.18;4.00;;;;;;;7.07;30.26;100573.03;4465541;32;33554;-66
2022/01/11 09:20:09;;;;;;;7.93;4.40;;;;;;;7.24;30.20;100573.09;4467553;32;34954;-66
2022/01/11 09:22:37;;;;;;;8.45;3.87;;;;;;;7.70;30.60;100581.53;4468465;32;35090;-67
2022/01/11 09:25:07;;;;;;;5.05;3.42;;;;;;;8.84;28.78;100575.66;4467299;32;32764;-68
2022/01/11 09:27:36;;;;;;;4.78;2.83;;;;;;;8.69;27.67;100579.16;4467870;32;33994;-67
2022/01/11 09:30:08;;;;;;;4.62;2.75;;;;;;;8.14;28.34;100575.72;4468002;32;33933;-66
2022/01/11 09:32:37;;;;;;;7.97;4.35;;;;;;;7.65;31.89;100577.34;4464395;32;33913;-68
2022/01/11 09:35:07;;;;;;;8.07;3.72;;;;;;;9.44;27.62;100575.00;4464731;32;34913;-71
2022/01/11 09:37:34;;;;;;;13.02;6.65;;;;;;;10.87;26.64;100568.22;4466990;32;34463;-68
2022/01/11 09:40:07;;;;;;;10.43;6.30;;;;;;;10.77;25.56;100566.22;4467866;32;33932;-68
2022/01/11 09:42:35;;;;;;;11.48;6.35;;;;;;;10.13;26.50;100577.19;4468286;32;34112;-69
2022/01/11 09:45:06;;;;;;;9.70;5.30;;;;;;;9.41;26.91;100570.69;4465687;32;33814;-69
2022/01/11 09:47:37;;;;;;;12.43;7.80;;;;;;;10.62;26.15;100566.19;4466361;32;33741;-68
2022/01/11 09:50:06;;;;;;;13.18;8.23;;;;;;;10.35;26.30;100570.56;4467050;32;33856;-68
2022/01/11 09:52:35;;;;;;;12.60;7.85;;;;;;;9.29;26.72;100568.72;4469409;32;34037;-68
2022/01/11 09:55:05;;;;;;;13.07;7.55;;;;;;;9.07;28.86;100574.38;4468232;32;32328;-68
2022/01/11 09:57:33;;;;;;;15.13;6.78;;;;;;;9.35;29.48;100573.72;4464034;32;34913;-69
2022/01/11 10:00:05;;;;;;;12.98;7.82;;;;;;;9.94;26.79;100564.03;4465535;32;32540;-69
2022/01/11 10:02:43;;;;;;;13.57;8.13;;;;;;;9.67;28.36;100571.00;4464192;32;35337;-70
2022/01/11 10:05:13;;;;;;;11.55;7.57;;;;;;;9.97;27.54;100566.53;4465783;32;33928;-68
2022/01/11 10:07:41;;;;;;;13.23;9.32;;;;;;;10.88;25.75;100559.22;4465760;32;34388;-68
2022/01/11 10:10:18;;;;;;;12.55;8.00;;;;;;;10.84;25.92;100556.81;4464765;32;34287;-66
2022/01/11 10:13:03;;;;;;;14.20;9.30;;;;;;;11.49;25.18;100557.06;4466113;32;33953;-67
2022/01/11 10:15:37;;;;;;;12.13;8.27;;;;;;;12.34;25.42;100553.16;4464931;32;33074;-67
2022/01/11 10:18:06;;;;;;;11.00;6.65;;;;;;;12.59;23.32;100559.50;4468181;32;33455;-68
2022/01/11 10:20:35;;;;;;;13.23;8.25;;;;;;;12.31;24.26;100564.09;4466007;32;33895;-67
2022/01/11 10:23:08;;;;;;;11.88;8.20;;;;;;;10.84;24.82;100565.72;4467912;32;35262;-67
2022/01/11 10:25:44;;;;;;;12.45;8.02;;;;;;;10.79;25.27;100559.81;4465764;32;32670;-68
2022/01/11 10:28:11;;;;;;;11.70;7.20;;;;;;;10.48;26.79;100559.03;4465901;32;33128;-69
2022/01/11 10:30:40;;;;;;;11.93;7.78;;;;;;;11.83;25.04;100557.53;4466901;32;34843;-68
2022/01/11 10:33:09;;;;;;;13.25;8.13;;;;;;;12.47;23.32;100552.31;4466318;32;34106;-68
2022/01/11 10:35:43;;;;;;;14.27;7.80;;;;;;;12.96;23.17;100564.94;4466614;32;33690;-68
2022/01/11 10:38:24;;;;;;;11.93;7.30;;;;;;;13.84;22.45;100554.03;4461927;32;32304;-68
2022/01/11 10:40:52;;;;;;;10.73;6.70;;;;;;;13.33;22.60;100559.63;4464275;32;34929;-69
2022/01/11 10:43:22;;;;;;;11.02;7.12;;;;;;;13.05;21.92;100558.91;4466614;32;34896;-69
2022/01/11 10:45:53;;;;;;;11.77;7.12;;;;;;;13.14;22.52;100552.88;4465253;32;33866;-68
2022/01/11 10:48:24;;;;;;;12.50;6.82;;;;;;;13.35;22.61;100555.84;4465272;32;34248;-69
2022/01/11 10:50:55;;;;;;;11.00;6.50;;;;;;;13.34;22.55;100559.50;4466088;32;33956;-69
2022/01/11 10:53:32;;;;;;;11.05;7.22;;;;;;;12.03;23.39;100558.91;4468047;32;35211;-69
2022/01/11 10:56:02;;;;;;;10.63;7.05;;;;;;;10.93;25.63;100562.47;4466903;32;33710;-69
2022/01/11 10:59:08;;;;;;;10.98;7.35;;;;;;;12.14;24.15;100552.81;4468189;32;35393;-70
2022/01/11 11:01:38;;;;;;;11.60;7.07;;;;;;;11.53;25.83;100558.63;4463881;32;34795;-69
2022/01/11 11:04:32;;;;;;;10.35;6.93;;;;;;;13.65;22.18;100568.87;4467865;32;34111;-69
2022/01/11 11:07:14;;;;;;;12.55;7.55;;;;;;;12.06;23.89;100567.59;4467436;32;32547;-69
2022/01/11 11:09:47;;;;;;;11.10;7.55;;;;;;;11.00;25.31;100559.41;4466406;32;34810;-69
2022/01/11 11:12:17;;;;;;;10.70;6.78;;;;;;;10.96;26.61;100559.59;4466142;32;34823;-69
2022/01/11 11:14:55;;;;;;;12.82;8.07;;;;;;;11.35;26.84;100558.00;4467317;32;35170;-69
2022/01/11 11:17:36;;;;;;;9.05;5.82;;;;;;;11.03;26.10;100565.41;4467863;32;34094;-69
2022/01/11 11:20:07;;;;;;;12.55;8.18;;;;;;;11.66;25.74;100567.56;4467518;32;33434;-69
2022/01/11 11:22:34;;;;;;;13.68;8.77;;;;;;;11.65;24.98;100564.97;4464655;32;32982;-69
2022/01/11 11:25:04;;;;;;;13.32;8.13;;;;;;;12.34;24.65;100555.84;4465984;32;35637;-70
2022/01/11 11:27:31;;;;;;;10.68;7.40;;;;;;;12.46;24.81;100566.72;4462601;32;33789;-70
2022/01/11 11:29:59;;;;;;;12.45;7.05;;;;;;;12.47;24.82;100568.41;4461766;32;34682;-69
2022/01/11 11:32:27;;;;;;;13.15;7.95;;;;;;;12.03;24.60;100565.13;4463699;32;33916;-69
2022/01/11 11:34:55;;;;;;;12.25;8.27;;;;;;;12.92;23.44;100558.94;4466932;32;34034;-70
2022/01/11 11:37:33;;;;;;;14.07;8.15;;;;;;;13.05;24.34;100564.28;4462085;32;32539;-69
2022/01/11 11:40:11;;;;;;;12.52;8.25;;;;;;;12.21;26.16;100560.34;4464226;32;33176;-69